Aviation Digital Data Service (ADDS)

Output produced by METARs form (0037 UTC 25 October 2014)
found at http://aviationweather.gov/adds/metars/
 
KAND 242320Z 2500/2524 36002KT P6SM FEW200 
     FM251600 25006KT P6SM SKC